createdAt,value
2018-06-17T00:00:19.549Z,7.20
2018-06-17T00:01:23.965Z,7.42
2018-06-17T00:02:28.429Z,7.30
2018-06-17T00:04:44.958Z,9.03
2018-06-17T00:05:49.487Z,7.40
2018-06-17T00:06:54.507Z,7.33
2018-06-17T00:07:59.833Z,8.10
2018-06-17T00:09:05.482Z,7.20
2018-06-17T00:10:10.723Z,6.22
2018-06-17T00:11:15.485Z,6.80
2018-06-17T00:12:20.707Z,8.70
2018-06-17T00:13:25.865Z,7.47
2018-06-17T00:14:30.672Z,7.45
2018-06-17T00:15:35.215Z,8.15
2018-06-17T00:16:39.606Z,7.37
2018-06-17T00:17:44.188Z,7.95
2018-06-17T00:18:48.584Z,7.85
2018-06-17T00:19:54.459Z,6.92
2018-06-17T00:20:59.027Z,7.00
2018-06-17T00:22:03.509Z,7.17
2018-06-17T00:23:08.018Z,8.33
2018-06-17T00:24:13.353Z,6.95
2018-06-17T00:25:17.754Z,7.53
2018-06-17T00:26:23.507Z,7.60
2018-06-17T00:27:42.354Z,7.35
2018-06-17T00:28:47.349Z,7.17
2018-06-17T00:29:51.706Z,7.33
2018-06-17T00:30:58.655Z,7.40
2018-06-17T00:32:03.275Z,6.25
2018-06-17T00:33:07.743Z,7.47
2018-06-17T00:34:12.148Z,7.95
2018-06-17T00:35:16.556Z,6.35
2018-06-17T00:36:20.940Z,6.83
2018-06-17T00:37:25.357Z,8.13
2018-06-17T00:38:29.761Z,6.67
2018-06-17T00:39:34.320Z,8.00
2018-06-17T00:40:39.074Z,7.15
2018-06-17T00:41:43.440Z,7.12
2018-06-17T00:42:48.200Z,7.00
2018-06-17T00:43:53.438Z,7.15
2018-06-17T00:44:57.864Z,7.15
2018-06-17T00:46:02.230Z,6.50
2018-06-17T00:47:07.254Z,6.83
2018-06-17T00:48:12.446Z,6.72
2018-06-17T00:49:17.583Z,6.25
2018-06-17T00:50:22.320Z,6.85
2018-06-17T00:51:26.801Z,6.17
2018-06-17T00:52:31.270Z,5.72
2018-06-17T00:53:35.721Z,7.25
2018-06-17T00:54:40.340Z,6.30
2018-06-17T00:55:44.731Z,6.60
2018-06-17T00:57:00.094Z,6.33
2018-06-17T00:58:04.515Z,5.60
2018-06-17T00:59:09.346Z,6.50
2018-06-17T01:00:13.812Z,6.37
2018-06-17T01:01:18.185Z,5.62
2018-06-17T01:02:23.556Z,6.47
2018-06-17T01:03:28.128Z,5.33
2018-06-17T01:04:33.558Z,5.20
2018-06-17T01:05:38.950Z,5.97
2018-06-17T01:06:43.364Z,5.05
2018-06-17T01:07:48.419Z,5.33
2018-06-17T01:08:52.972Z,6.37
2018-06-17T01:09:57.621Z,5.65
2018-06-17T01:11:02.987Z,5.05
2018-06-17T01:12:08.781Z,6.28
2018-06-17T01:13:13.486Z,5.60
2018-06-17T01:14:17.844Z,5.75
2018-06-17T01:15:22.352Z,5.97
2018-06-17T01:16:27.686Z,5.22
2018-06-17T01:17:36.092Z,5.58
2018-06-17T01:18:42.516Z,5.97
2018-06-17T01:19:47.270Z,5.58
2018-06-17T01:20:53.444Z,5.17
2018-06-17T01:21:57.956Z,6.28
2018-06-17T01:23:02.647Z,5.33
2018-06-17T01:24:08.181Z,5.53
2018-06-17T01:25:13.680Z,5.92
2018-06-17T01:26:18.068Z,5.28
2018-06-17T01:27:22.680Z,6.20
2018-06-17T01:28:28.415Z,5.42
2018-06-17T01:29:34.169Z,6.10
2018-06-17T01:30:39.972Z,6.15
2018-06-17T01:31:44.469Z,6.10
2018-06-17T01:32:49.198Z,6.25
2018-06-17T01:33:53.907Z,6.10
2018-06-17T01:35:03.598Z,6.03
2018-06-17T01:36:08.167Z,5.60
2018-06-17T01:37:12.848Z,6.72
2018-06-17T01:38:19.332Z,6.40
2018-06-17T01:39:23.697Z,6.25
2018-06-17T01:40:28.975Z,6.60
2018-06-17T01:41:33.519Z,6.25
2018-06-17T01:42:37.829Z,6.03
2018-06-17T01:43:44.144Z,5.58
2018-06-17T01:44:48.572Z,5.90
2018-06-17T01:45:54.058Z,5.45
2018-06-17T01:46:59.172Z,5.78
2018-06-17T01:48:04.458Z,4.70
2018-06-17T01:49:16.966Z,5.15
2018-06-17T01:50:21.206Z,4.87
2018-06-17T01:51:25.906Z,5.08
2018-06-17T01:52:30.250Z,4.20
2018-06-17T01:53:34.524Z,4.80
2018-06-17T01:54:39.076Z,4.87
2018-06-17T01:55:43.364Z,4.90
2018-06-17T01:56:47.647Z,5.20
2018-06-17T01:57:51.931Z,4.95
2018-06-17T01:58:56.223Z,5.42
2018-06-17T02:00:00.497Z,5.42
2018-06-17T02:01:04.841Z,4.33
2018-06-17T02:04:10.297Z,4.20
2018-06-17T02:05:19.726Z,4.72
2018-06-17T02:06:29.460Z,4.60
2018-06-17T02:07:38.775Z,4.65
2018-06-17T02:08:48.362Z,4.10
2018-06-17T02:09:58.570Z,4.15
2018-06-17T02:11:07.995Z,4.03
2018-06-17T02:12:20.626Z,5.50
2018-06-17T02:13:24.903Z,5.70
2018-06-17T02:14:34.683Z,4.90
2018-06-17T02:15:39.762Z,5.90
2018-06-17T02:16:44.085Z,5.20
2018-06-17T02:17:48.424Z,5.62
2018-06-17T02:18:52.791Z,5.62
2018-06-17T02:19:57.404Z,5.00
2018-06-17T02:21:02.019Z,6.35
2018-06-17T02:22:06.480Z,5.05
2018-06-17T02:23:10.789Z,4.60
2018-06-17T02:24:15.104Z,4.58
2018-06-17T02:25:19.452Z,4.40
2018-06-17T02:26:24.040Z,5.90
2018-06-17T02:27:28.436Z,4.60
2018-06-17T02:28:32.850Z,5.20
2018-06-17T02:29:37.438Z,4.37
2018-06-17T02:30:41.816Z,4.12
2018-06-17T02:31:46.247Z,4.72
2018-06-17T02:32:51.152Z,4.37
2018-06-17T02:33:55.525Z,4.55
2018-06-17T02:34:59.955Z,4.20
2018-06-17T02:36:04.316Z,4.22
2018-06-17T02:37:09.243Z,4.90
2018-06-17T02:38:14.692Z,4.72
2018-06-17T02:39:19.654Z,4.40
2018-06-17T02:40:24.021Z,4.83
2018-06-17T02:41:28.577Z,4.33
2018-06-17T02:42:33.049Z,4.28
2018-06-17T02:43:37.466Z,4.97
2018-06-17T02:44:41.883Z,5.70
2018-06-17T02:45:51.434Z,4.20
2018-06-17T02:47:00.877Z,5.33
2018-06-17T02:48:10.300Z,5.67
2018-06-17T02:49:19.717Z,4.83
2018-06-17T02:50:29.068Z,5.42
2018-06-17T02:51:38.692Z,5.28
2018-06-17T02:54:49.368Z,5.45
2018-06-17T02:55:54.099Z,5.78
2018-06-17T02:56:58.893Z,7.70
2018-06-17T02:58:03.478Z,6.70
2018-06-17T02:59:08.288Z,7.53
2018-06-17T03:00:12.918Z,6.05
2018-06-17T03:01:17.346Z,6.00
2018-06-17T03:02:21.603Z,5.97
2018-06-17T03:03:26.178Z,5.92
2018-06-17T03:04:30.695Z,5.67
2018-06-17T03:05:34.990Z,4.80
2018-06-17T03:06:39.299Z,5.28
2018-06-17T03:07:43.931Z,6.10
2018-06-17T03:08:48.356Z,4.95
2018-06-17T03:09:52.690Z,5.50
2018-06-17T03:10:57.652Z,5.20
2018-06-17T03:12:02.497Z,6.20
2018-06-17T03:13:06.892Z,6.50
2018-06-17T03:14:11.505Z,5.97
2018-06-17T03:15:16.337Z,6.10
2018-06-17T03:16:20.863Z,6.25
2018-06-17T03:17:25.375Z,5.72
2018-06-17T03:18:29.792Z,5.55
2018-06-17T03:19:34.657Z,5.25
2018-06-17T03:20:39.152Z,5.42
2018-06-17T03:21:43.639Z,5.10
2018-06-17T03:22:48.045Z,5.60
2018-06-17T03:23:52.402Z,6.00
2018-06-17T03:25:01.753Z,6.28
2018-06-17T03:26:11.161Z,6.42
2018-06-17T03:27:21.790Z,5.50
2018-06-17T03:28:31.138Z,6.30
2018-06-17T03:29:40.458Z,6.60
2018-06-17T03:30:50.215Z,6.12
2018-06-17T03:31:59.601Z,5.87
2018-06-17T03:33:08.930Z,6.28
2018-06-17T03:34:13.221Z,4.80
2018-06-17T03:35:23.682Z,5.42
2018-06-17T03:36:30.050Z,5.78
2018-06-17T03:37:34.445Z,5.58
2018-06-17T03:38:40.300Z,5.30
2018-06-17T03:39:44.681Z,5.47
2018-06-17T03:40:49.368Z,4.90
2018-06-17T03:41:53.749Z,5.50
2018-06-17T03:42:59.058Z,5.58
2018-06-17T03:44:03.850Z,5.20
2018-06-17T03:45:08.601Z,5.12
2018-06-17T03:46:13.551Z,5.47
2018-06-17T03:47:17.966Z,5.65
2018-06-17T03:49:25.899Z,6.03
2018-06-17T03:50:30.412Z,4.45
2018-06-17T03:51:35.660Z,5.15
2018-06-17T03:52:39.949Z,5.17
2018-06-17T03:53:44.465Z,5.70
2018-06-17T03:54:51.715Z,5.78
2018-06-17T03:55:56.029Z,4.45
2018-06-17T03:57:00.598Z,4.03
2018-06-17T03:58:04.871Z,4.30
2018-06-17T03:59:09.196Z,4.25
2018-06-17T04:00:14.449Z,4.80
2018-06-17T04:01:18.954Z,4.80
2018-06-17T04:02:23.526Z,4.78
2018-06-17T04:03:28.061Z,3.98
2018-06-17T04:04:36.512Z,4.65
2018-06-17T04:05:40.835Z,5.28
2018-06-17T04:06:45.217Z,4.20
2018-06-17T04:07:49.757Z,4.28
2018-06-17T04:08:55.235Z,5.25
2018-06-17T04:09:59.557Z,5.65
2018-06-17T04:11:04.172Z,4.33
2018-06-17T04:12:08.724Z,4.08
2018-06-17T04:13:13.052Z,4.30
2018-06-17T04:14:17.325Z,4.20
2018-06-17T04:15:21.666Z,3.95
2018-06-17T04:16:26.103Z,3.58
2018-06-17T04:17:31.265Z,4.75
2018-06-17T04:18:36.213Z,4.45
2018-06-17T04:19:40.464Z,4.97
2018-06-17T04:20:45.127Z,4.28
2018-06-17T04:21:49.694Z,3.67
2018-06-17T04:22:53.972Z,3.47
2018-06-17T04:23:58.281Z,4.10
2018-06-17T04:25:02.630Z,3.50
2018-06-17T04:26:07.212Z,4.15
2018-06-17T04:27:11.497Z,3.87
2018-06-17T04:28:16.362Z,4.55
2018-06-17T04:29:20.714Z,3.40
2018-06-17T04:30:25.228Z,5.10
2018-06-17T04:31:29.722Z,4.05
2018-06-17T04:32:34.139Z,3.77
2018-06-17T04:33:38.893Z,4.65
2018-06-17T04:34:43.839Z,4.00
2018-06-17T04:35:48.877Z,4.03
2018-06-17T04:36:53.240Z,3.20
2018-06-17T04:37:57.652Z,4.05
2018-06-17T04:39:02.413Z,3.90
2018-06-17T04:40:07.303Z,4.53
2018-06-17T04:41:11.909Z,3.80
2018-06-17T04:42:16.342Z,4.60
2018-06-17T04:43:20.763Z,4.12
2018-06-17T04:44:25.109Z,4.00
2018-06-17T04:45:29.615Z,4.42
2018-06-17T04:46:34.440Z,4.08
2018-06-17T04:47:38.883Z,4.22
2018-06-17T04:48:43.686Z,3.58
2018-06-17T04:49:48.115Z,3.50
2018-06-17T04:50:52.464Z,3.50
2018-06-17T04:51:57.420Z,3.22
2018-06-17T04:53:01.805Z,4.42
2018-06-17T04:54:06.196Z,3.70
2018-06-17T04:55:10.557Z,3.58
2018-06-17T04:56:14.945Z,3.80
2018-06-17T04:57:19.757Z,4.17
2018-06-17T04:58:24.162Z,4.00
2018-06-17T04:59:28.579Z,3.87
2018-06-17T05:00:33.024Z,4.60
2018-06-17T05:01:38.167Z,4.15
2018-06-17T05:02:42.566Z,3.52
2018-06-17T05:03:46.988Z,4.47
2018-06-17T05:04:51.358Z,4.95
2018-06-17T05:05:55.840Z,4.42
2018-06-17T05:07:00.349Z,3.60
2018-06-17T05:08:05.226Z,4.60
2018-06-17T05:09:10.470Z,4.00
2018-06-17T05:10:16.233Z,4.10
2018-06-17T05:11:20.876Z,3.70
2018-06-17T05:12:25.355Z,3.65
2018-06-17T05:13:29.636Z,3.67
2018-06-17T05:14:36.331Z,4.35
2018-06-17T05:15:41.378Z,4.72
2018-06-17T05:16:45.804Z,4.37
2018-06-17T05:17:51.091Z,4.33
2018-06-17T05:18:59.107Z,3.75
2018-06-17T05:20:33.087Z,4.60
2018-06-17T05:22:05.437Z,4.30
2018-06-17T05:23:31.722Z,4.05
2018-06-17T05:24:50.534Z,3.50
2018-06-17T05:26:08.387Z,4.50
2018-06-17T05:28:47.920Z,4.00
2018-06-17T05:29:56.666Z,4.35
2018-06-17T05:31:03.713Z,3.47
2018-06-17T05:32:10.224Z,4.40
2018-06-17T05:33:15.308Z,3.45
2018-06-17T05:34:21.107Z,3.90
2018-06-17T05:35:31.661Z,4.37
2018-06-17T05:36:40.273Z,3.55
2018-06-17T05:37:48.696Z,3.10
2018-06-17T05:38:53.871Z,4.03
2018-06-17T05:39:59.547Z,3.25
2018-06-17T05:41:04.963Z,3.30
2018-06-17T05:42:09.365Z,4.05
2018-06-17T05:43:14.545Z,3.83
2018-06-17T05:44:18.912Z,3.47
2018-06-17T05:45:23.420Z,3.50
2018-06-17T05:46:29.414Z,4.30
2018-06-17T05:47:34.385Z,3.27
2018-06-17T05:48:39.348Z,3.33
2018-06-17T05:49:43.951Z,2.60
2018-06-17T05:50:48.382Z,3.17
2018-06-17T05:51:53.027Z,3.45
2018-06-17T05:52:59.734Z,4.28
2018-06-17T05:54:06.281Z,4.65
2018-06-17T05:55:11.636Z,3.40
2018-06-17T05:56:15.988Z,3.70
2018-06-17T05:57:20.368Z,4.12
2018-06-17T05:58:25.426Z,3.52
2018-06-17T05:59:29.961Z,3.67
2018-06-17T06:00:34.128Z,2.77
2018-06-17T06:01:39.437Z,2.75
2018-06-17T06:02:44.140Z,3.50
2018-06-17T06:03:49.046Z,3.60
2018-06-17T06:04:55.232Z,3.72
2018-06-17T06:06:00.339Z,3.47
2018-06-17T06:07:04.755Z,3.90
2018-06-17T06:08:09.337Z,4.85
2018-06-17T06:09:13.793Z,4.47
2018-06-17T06:10:18.138Z,3.52
2018-06-17T06:11:23.938Z,3.98
2018-06-17T06:12:29.288Z,3.72
2018-06-17T06:13:33.593Z,4.67
2018-06-17T06:14:39.857Z,4.37
2018-06-17T06:15:44.129Z,3.30
2018-06-17T06:16:48.594Z,3.27
2018-06-17T06:17:54.232Z,4.50
2018-06-17T06:18:59.507Z,3.75
2018-06-17T06:20:04.306Z,4.15
2018-06-17T06:21:09.273Z,4.10
2018-06-17T06:22:14.004Z,3.58
2018-06-17T06:23:19.116Z,3.77
2018-06-17T06:24:24.529Z,3.75
2018-06-17T06:25:29.012Z,3.58
2018-06-17T06:26:34.721Z,4.05
2018-06-17T06:27:39.474Z,3.20
2018-06-17T06:28:43.949Z,3.40
2018-06-17T06:29:48.396Z,4.65
2018-06-17T06:30:52.911Z,3.45
2018-06-17T06:31:58.036Z,4.17
2018-06-17T06:33:02.495Z,3.87
2018-06-17T06:34:07.391Z,3.70
2018-06-17T06:35:13.403Z,4.00
2018-06-17T06:36:18.129Z,3.25
2018-06-17T06:37:29.355Z,4.28
2018-06-17T06:38:34.545Z,4.53
2018-06-17T06:39:40.181Z,3.65
2018-06-17T06:40:44.579Z,5.15
2018-06-17T06:41:49.132Z,5.42
2018-06-17T06:42:53.665Z,4.45
2018-06-17T06:43:58.017Z,3.72
2018-06-17T06:45:02.439Z,4.17
2018-06-17T06:46:07.410Z,4.30
2018-06-17T06:47:11.760Z,6.65
2018-06-17T06:48:16.379Z,3.90
2018-06-17T06:49:24.063Z,3.33
2018-06-17T06:50:28.726Z,3.30
2018-06-17T06:51:33.119Z,3.42
2018-06-17T06:52:37.558Z,3.77
2018-06-17T06:53:42.242Z,3.95
2018-06-17T06:54:46.658Z,3.95
2018-06-17T06:55:51.258Z,4.12
2018-06-17T06:56:55.648Z,3.40
2018-06-17T06:58:00.377Z,4.05
2018-06-17T06:59:04.945Z,3.45
2018-06-17T07:00:09.723Z,4.05
2018-06-17T07:01:19.343Z,4.30
2018-06-17T07:02:34.540Z,3.47
2018-06-17T07:03:49.647Z,3.60
2018-06-17T07:05:04.651Z,3.62
2018-06-17T07:06:19.679Z,3.30
2018-06-17T07:07:34.635Z,3.67
2018-06-17T07:08:49.850Z,3.08
2018-06-17T07:10:04.894Z,4.47
2018-06-17T07:11:09.257Z,3.60
2018-06-17T07:12:14.465Z,3.87
2018-06-17T07:13:18.793Z,3.55
2018-06-17T07:14:23.694Z,3.33
2018-06-17T07:15:39.331Z,4.65
2018-06-17T07:16:54.373Z,5.40
2018-06-17T07:18:09.738Z,6.50
2018-06-17T07:19:21.449Z,8.00
2018-06-17T07:20:28.052Z,4.78
2018-06-17T07:21:32.664Z,4.75
2018-06-17T07:22:37.038Z,4.30
2018-06-17T07:23:41.744Z,4.05
2018-06-17T07:24:46.529Z,3.75
2018-06-17T07:26:31.594Z,4.45
2018-06-17T07:27:50.808Z,3.47
2018-06-17T07:29:05.780Z,4.25
2018-06-17T07:30:10.383Z,3.27
2018-06-17T07:31:14.868Z,3.70
2018-06-17T07:32:21.673Z,3.55
2018-06-17T07:33:26.280Z,3.75
2018-06-17T07:34:30.912Z,5.42
2018-06-17T07:35:45.039Z,3.02
2018-06-17T07:37:12.381Z,4.35
2018-06-17T07:38:18.296Z,3.77
2018-06-17T07:40:30.702Z,4.30
2018-06-17T07:41:35.118Z,3.40
2018-06-17T07:42:40.829Z,3.77
2018-06-17T07:43:45.494Z,3.62
2018-06-17T07:44:50.106Z,3.25
2018-06-17T07:45:55.314Z,3.60
2018-06-17T07:47:01.185Z,3.75
2018-06-17T07:48:07.125Z,3.87
2018-06-17T07:49:33.208Z,3.65
2018-06-17T07:50:49.184Z,3.60
2018-06-17T07:52:06.401Z,3.60
2018-06-17T07:53:18.556Z,3.60
2018-06-17T07:54:23.921Z,4.58
2018-06-17T07:55:28.242Z,5.17
2018-06-17T07:56:33.541Z,3.10
2018-06-17T07:57:38.719Z,3.25
2018-06-17T07:58:43.375Z,3.55
2018-06-17T07:59:51.165Z,3.50
2018-06-17T08:00:55.606Z,3.25
2018-06-17T08:02:00.263Z,3.47
2018-06-17T08:03:05.434Z,4.17
2018-06-17T08:04:10.033Z,4.15
2018-06-17T08:05:14.393Z,3.40
2018-06-17T08:06:19.335Z,4.08
2018-06-17T08:07:23.668Z,3.52
2018-06-17T08:08:28.405Z,2.85
2018-06-17T08:09:33.107Z,3.47
2018-06-17T08:10:40.063Z,3.40
2018-06-17T08:11:46.924Z,3.00
2018-06-17T08:12:51.757Z,3.72
2018-06-17T08:13:57.285Z,3.22
2018-06-17T08:15:05.308Z,3.75
2018-06-17T08:16:12.355Z,3.42
2018-06-17T08:17:18.887Z,4.30
2018-06-17T08:18:25.318Z,3.40
2018-06-17T08:19:30.558Z,3.65
2018-06-17T08:20:36.530Z,3.85
2018-06-17T08:21:41.328Z,3.42
2018-06-17T08:22:46.149Z,4.78
2018-06-17T08:23:50.979Z,3.65
2018-06-17T08:24:55.823Z,3.77
2018-06-17T08:26:01.582Z,3.70
2018-06-17T08:27:07.662Z,5.12
2018-06-17T08:28:12.872Z,4.45
2018-06-17T08:29:17.667Z,4.75
2018-06-17T08:30:22.038Z,4.78
2018-06-17T08:31:26.484Z,3.87
2018-06-17T08:32:31.358Z,4.17
2018-06-17T08:33:36.049Z,4.00
2018-06-17T08:34:41.299Z,3.60
2018-06-17T08:35:48.052Z,3.90
2018-06-17T08:36:53.265Z,4.58
2018-06-17T08:37:59.492Z,4.47
2018-06-17T08:39:05.248Z,3.90
2018-06-17T08:40:10.777Z,13.50
2018-06-17T08:41:16.201Z,10.30
2018-06-17T08:42:20.704Z,3.98
2018-06-17T08:43:25.328Z,4.97
2018-06-17T08:44:29.866Z,4.17
2018-06-17T08:45:34.418Z,5.37
2018-06-17T08:47:50.225Z,4.95
2018-06-17T08:48:54.997Z,4.03
2018-06-17T08:50:00.114Z,4.87
2018-06-17T08:51:06.067Z,4.45
2018-06-17T08:52:12.376Z,5.17
2018-06-17T08:53:16.809Z,4.37
2018-06-17T08:54:21.434Z,4.85
2018-06-17T08:55:25.830Z,4.50
2018-06-17T08:56:31.258Z,3.90
2018-06-17T08:57:35.649Z,4.45
2018-06-17T08:58:40.281Z,5.20
2018-06-17T08:59:45.524Z,3.72
2018-06-17T09:00:53.108Z,3.92
2018-06-17T09:01:59.220Z,4.03
2018-06-17T09:03:04.928Z,3.62
2018-06-17T09:04:09.452Z,4.05
2018-06-17T09:05:13.842Z,4.28
2018-06-17T09:06:18.427Z,3.75
2018-06-17T09:07:27.777Z,4.05
2018-06-17T09:08:32.845Z,4.20
2018-06-17T09:09:43.394Z,4.00
2018-06-17T09:10:48.396Z,4.65
2018-06-17T09:11:54.723Z,3.90
2018-06-17T09:13:02.433Z,3.55
2018-06-17T09:14:14.553Z,3.70
2018-06-17T09:15:21.382Z,4.75
2018-06-17T09:16:26.865Z,3.95
2018-06-17T09:17:37.570Z,4.35
2018-06-17T09:18:43.871Z,4.92
2018-06-17T09:19:49.720Z,3.75
2018-06-17T09:20:54.275Z,3.27
2018-06-17T09:22:03.508Z,3.83
2018-06-17T09:23:18.025Z,3.50
2018-06-17T09:24:24.560Z,4.00
2018-06-17T09:25:33.750Z,3.37
2018-06-17T09:26:38.923Z,3.83
2018-06-17T09:27:51.863Z,3.62
2018-06-17T09:28:56.575Z,4.00
2018-06-17T09:30:01.108Z,5.70
2018-06-17T09:31:06.791Z,4.20
2018-06-17T09:32:15.014Z,4.45
2018-06-17T09:33:24.976Z,4.00
2018-06-17T09:34:32.811Z,3.37
2018-06-17T09:35:46.664Z,5.15
2018-06-17T09:36:58.788Z,5.00
2018-06-17T09:38:04.811Z,4.30
2018-06-17T09:39:12.294Z,3.52
2018-06-17T09:40:18.533Z,3.87
2018-06-17T09:41:30.743Z,4.17
2018-06-17T09:42:45.406Z,4.12
2018-06-17T09:43:53.355Z,3.95
2018-06-17T09:45:05.060Z,4.78
2018-06-17T09:46:14.580Z,4.45
2018-06-17T09:47:22.143Z,4.30
2018-06-17T09:53:59.713Z,4.05
2018-06-17T09:55:13.646Z,4.40
2018-06-17T09:56:20.507Z,3.90
2018-06-17T09:57:27.371Z,3.27
2018-06-17T09:58:37.430Z,3.75
2018-06-17T09:59:50.139Z,3.55
2018-06-17T10:00:56.723Z,3.60
2018-06-17T10:02:01.253Z,4.45
2018-06-17T10:03:07.224Z,4.12
2018-06-17T10:04:15.593Z,3.85
2018-06-17T10:05:23.042Z,4.50
2018-06-17T10:06:59.767Z,3.25
2018-06-17T10:08:06.206Z,4.17
2018-06-17T10:09:17.425Z,3.52
2018-06-17T10:11:00.545Z,3.77
2018-06-17T10:12:10.757Z,4.05
2018-06-17T10:13:19.790Z,9.38
2018-06-17T10:14:25.496Z,3.40
2018-06-17T10:15:35.861Z,4.83
2018-06-17T10:16:45.380Z,4.17
2018-06-17T10:17:52.349Z,4.17
2018-06-17T10:18:58.519Z,4.40
2018-06-17T10:20:10.612Z,4.92
2018-06-17T10:21:17.704Z,3.40
2018-06-17T10:22:23.514Z,4.15
2018-06-17T10:23:30.675Z,4.47
2018-06-17T10:24:41.581Z,3.85
2018-06-17T10:26:09.350Z,3.55
2018-06-17T10:27:15.017Z,3.90
2018-06-17T10:28:22.464Z,3.77
2018-06-17T10:29:29.907Z,3.30
2018-06-17T10:30:39.452Z,3.92
2018-06-17T10:31:45.825Z,3.42
2018-06-17T10:32:50.573Z,3.30
2018-06-17T10:33:55.846Z,3.55
2018-06-17T10:35:00.776Z,4.25
2018-06-17T10:36:08.187Z,3.00
2018-06-17T10:37:22.638Z,3.33
2018-06-17T10:38:28.077Z,3.70
2018-06-17T10:39:36.178Z,4.00
2018-06-17T10:40:49.652Z,4.03
2018-06-17T10:41:55.487Z,3.65
2018-06-17T10:43:04.342Z,4.17
2018-06-17T10:44:10.145Z,3.58
2018-06-17T10:45:15.495Z,4.33
2018-06-17T10:46:21.826Z,4.40
2018-06-17T10:47:31.861Z,3.72
2018-06-17T10:48:36.814Z,3.98
2018-06-17T10:49:41.279Z,4.00
2018-06-17T10:50:47.494Z,3.45
2018-06-17T10:51:51.909Z,4.17
2018-06-17T10:52:56.533Z,3.50
2018-06-17T10:54:01.376Z,3.25
2018-06-17T10:55:08.812Z,3.90
2018-06-17T10:56:14.675Z,3.45
2018-06-17T10:57:19.293Z,4.65
2018-06-17T10:58:24.017Z,3.45
2018-06-17T10:59:30.410Z,4.58
2018-06-17T11:00:35.674Z,5.12
2018-06-17T11:01:40.922Z,4.30
2018-06-17T11:02:47.113Z,5.85
2018-06-17T11:03:55.872Z,4.00
2018-06-17T11:05:00.582Z,3.17
2018-06-17T11:06:05.637Z,4.25
2018-06-17T11:07:12.904Z,3.60
2018-06-17T11:08:17.530Z,3.87
2018-06-17T11:09:25.848Z,2.83
2018-06-17T11:10:32.024Z,2.83
2018-06-17T11:11:36.881Z,3.27
2018-06-17T11:12:42.446Z,3.15
2018-06-17T11:13:47.578Z,3.90
2018-06-17T11:14:53.973Z,2.70
2018-06-17T11:16:00.035Z,3.20
2018-06-17T11:17:05.867Z,3.60
2018-06-17T11:18:17.709Z,3.27
2018-06-17T11:19:22.529Z,3.45
2018-06-17T11:20:31.942Z,4.00
2018-06-17T11:21:46.890Z,3.65
2018-06-17T11:22:56.391Z,3.83
2018-06-17T11:24:20.005Z,5.78
2018-06-17T11:25:28.388Z,4.70
2018-06-17T11:26:49.620Z,4.95
2018-06-17T11:27:57.476Z,5.05
2018-06-17T11:29:02.615Z,3.55
2018-06-17T11:30:23.163Z,4.45
2018-06-17T11:31:30.966Z,3.95
2018-06-17T11:32:37.844Z,3.70
2018-06-17T11:33:44.789Z,3.75
2018-06-17T11:34:50.847Z,4.22
2018-06-17T11:35:57.593Z,3.35
2018-06-17T11:37:03.278Z,3.45
2018-06-17T11:38:10.869Z,3.50
2018-06-17T11:39:15.289Z,3.98
2018-06-17T11:40:20.438Z,3.20
2018-06-17T11:41:25.899Z,4.40
2018-06-17T11:42:30.507Z,3.58
2018-06-17T11:43:35.371Z,5.00
2018-06-17T11:44:41.296Z,4.83
2018-06-17T11:45:46.149Z,5.15
2018-06-17T11:46:50.954Z,3.52
2018-06-17T11:47:57.428Z,9.50
2018-06-17T11:49:03.780Z,4.35
2018-06-17T11:50:09.903Z,3.45
2018-06-17T11:51:14.448Z,3.27
2018-06-17T11:52:18.908Z,3.67
2018-06-17T11:53:23.774Z,4.95
2018-06-17T11:54:30.669Z,3.47
2018-06-17T11:55:36.129Z,3.40
2018-06-17T11:56:40.463Z,4.33
2018-06-17T11:57:45.644Z,3.20
2018-06-17T11:58:51.215Z,4.37
2018-06-17T12:00:00.339Z,6.47
2018-06-17T12:01:05.581Z,4.85
2018-06-17T12:02:10.377Z,3.80
2018-06-17T12:03:16.947Z,3.87
2018-06-17T12:04:21.537Z,4.30
2018-06-17T12:05:26.445Z,3.95
2018-06-17T12:06:33.969Z,4.75
2018-06-17T12:07:39.358Z,6.28
2018-06-17T12:08:44.452Z,7.37
2018-06-17T12:09:50.621Z,4.90
2018-06-17T12:10:57.445Z,3.65
2018-06-17T12:12:05.819Z,3.60
2018-06-17T12:13:10.338Z,3.83
2018-06-17T12:14:15.678Z,4.58
2018-06-17T12:15:22.210Z,4.35
2018-06-17T12:16:27.676Z,3.50
2018-06-17T12:17:34.379Z,3.00
2018-06-17T12:18:39.459Z,3.92
2018-06-17T12:19:44.140Z,3.85
2018-06-17T12:20:48.954Z,3.27
2018-06-17T12:21:54.626Z,3.27
2018-06-17T12:23:00.494Z,3.67
2018-06-17T12:24:05.139Z,2.80
2018-06-17T12:25:09.924Z,4.05
2018-06-17T12:26:14.781Z,4.17
2018-06-17T12:27:19.365Z,4.05
2018-06-17T12:28:24.399Z,3.30
2018-06-17T12:29:31.261Z,4.03
2018-06-17T12:30:36.922Z,4.12
2018-06-17T12:31:46.133Z,2.95
2018-06-17T12:32:51.029Z,3.85
2018-06-17T12:33:56.477Z,2.60
2018-06-17T12:35:01.414Z,3.60
2018-06-17T12:36:10.699Z,3.40
2018-06-17T12:37:23.416Z,2.67
2018-06-17T12:38:28.574Z,2.92
2018-06-17T12:39:34.732Z,2.02
2018-06-17T12:40:47.976Z,3.72
2018-06-17T12:41:52.495Z,3.98
2018-06-17T12:42:57.043Z,3.15
2018-06-17T12:44:10.094Z,2.75
2018-06-17T12:45:17.817Z,2.50
2018-06-17T12:46:22.640Z,2.87
2018-06-17T12:47:27.829Z,3.35
2018-06-17T12:48:32.903Z,3.37
2018-06-17T12:49:40.003Z,4.00
2018-06-17T12:50:47.537Z,3.22
2018-06-17T12:51:53.931Z,3.42
2018-06-17T12:53:01.317Z,3.92
2018-06-17T12:54:06.779Z,3.95
2018-06-17T12:55:11.279Z,3.87
2018-06-17T12:56:22.078Z,4.08
2018-06-17T12:57:26.665Z,3.70
2018-06-17T12:58:33.493Z,3.58
2018-06-17T12:59:39.956Z,2.90
2018-06-17T13:00:45.360Z,3.55
2018-06-17T13:01:50.813Z,3.08
2018-06-17T13:03:00.817Z,3.22
2018-06-17T13:04:05.642Z,2.95
2018-06-17T13:05:10.567Z,3.87
2018-06-17T13:06:16.399Z,3.17
2018-06-17T13:07:23.551Z,3.08
2018-06-17T13:08:28.399Z,3.45
2018-06-17T13:09:33.197Z,3.25
2018-06-17T13:10:38.565Z,2.72
2018-06-17T13:11:45.863Z,2.95
2018-06-17T13:12:51.328Z,3.35
2018-06-17T13:13:56.070Z,2.75
2018-06-17T13:15:01.417Z,3.15
2018-06-17T13:16:07.868Z,2.80
2018-06-17T13:17:15.202Z,2.67
2018-06-17T13:18:20.339Z,3.47
2018-06-17T13:19:26.041Z,3.37
2018-06-17T13:20:32.920Z,2.62
2018-06-17T13:21:39.081Z,3.22
2018-06-17T13:22:47.701Z,3.33
2018-06-17T13:23:54.010Z,2.70
2018-06-17T13:25:02.765Z,2.50
2018-06-17T13:26:08.173Z,2.47
2018-06-17T13:27:13.573Z,2.50
2018-06-17T13:28:19.029Z,2.42
2018-06-17T13:29:31.079Z,2.98
2018-06-17T13:30:37.689Z,2.80
2018-06-17T13:31:47.977Z,2.33
2018-06-17T13:32:56.409Z,2.45
2018-06-17T13:34:05.913Z,3.37
2018-06-17T13:35:12.942Z,3.10
2018-06-17T13:36:18.505Z,2.45
2018-06-17T13:37:24.024Z,2.33
2018-06-17T13:38:31.256Z,4.40
2018-06-17T13:39:36.325Z,3.27
2018-06-17T13:40:43.552Z,3.08
2018-06-17T13:41:48.178Z,4.55
2018-06-17T13:42:54.812Z,3.75
2018-06-17T13:44:03.850Z,3.00
2018-06-17T13:45:08.359Z,2.30
2018-06-17T13:46:13.307Z,3.12
2018-06-17T13:47:18.168Z,3.05
2018-06-17T13:48:23.856Z,3.72
2018-06-17T13:49:29.382Z,4.45
2018-06-17T13:50:36.759Z,3.52
2018-06-17T13:52:21.624Z,2.45
2018-06-17T13:53:28.724Z,4.30
2018-06-17T13:54:35.727Z,3.10
2018-06-17T13:55:44.861Z,3.27
2018-06-17T13:56:49.812Z,3.12
2018-06-17T13:57:57.017Z,3.52
2018-06-17T13:59:05.462Z,4.22
2018-06-17T14:00:11.103Z,2.40
2018-06-17T14:01:20.540Z,3.12
2018-06-17T14:02:25.557Z,3.50
2018-06-17T14:03:33.228Z,3.20
2018-06-17T14:04:39.949Z,2.65
2018-06-17T14:05:45.450Z,2.50
2018-06-17T14:06:52.592Z,2.87
2018-06-17T14:07:59.433Z,3.20
2018-06-17T14:09:08.779Z,3.08
2018-06-17T14:10:16.849Z,3.15
2018-06-17T14:11:21.847Z,3.60
2018-06-17T14:12:42.222Z,3.55
2018-06-17T14:13:52.426Z,3.20
2018-06-17T14:15:10.539Z,3.20
2018-06-17T14:16:25.449Z,2.80
2018-06-17T14:17:31.440Z,2.30
2018-06-17T14:18:39.238Z,3.22
2018-06-17T14:19:44.251Z,3.33
2018-06-17T14:20:54.742Z,2.60
2018-06-17T14:22:00.422Z,2.75
2018-06-17T14:23:05.381Z,3.40
2018-06-17T14:24:13.853Z,2.67
2018-06-17T14:25:23.349Z,2.47
2018-06-17T14:26:30.900Z,3.10
2018-06-17T14:27:36.585Z,2.58
2018-06-17T14:28:42.675Z,2.35
2018-06-17T14:29:47.653Z,3.08
2018-06-17T14:30:55.615Z,2.62
2018-06-17T14:32:05.283Z,2.75
2018-06-17T14:33:12.231Z,3.00
2018-06-17T14:34:21.327Z,2.98
2018-06-17T14:35:28.366Z,2.77
2018-06-17T14:36:34.200Z,2.05
2018-06-17T14:37:40.343Z,3.10
2018-06-17T14:38:45.228Z,3.20
2018-06-17T14:39:54.029Z,2.47
2018-06-17T14:41:06.600Z,2.45
2018-06-17T14:42:18.422Z,2.92
2018-06-17T14:43:29.441Z,2.77
2018-06-17T14:44:40.911Z,2.72
2018-06-17T14:47:52.778Z,2.55
2018-06-17T14:49:03.508Z,2.80
2018-06-17T14:50:13.352Z,2.98
2018-06-17T14:51:24.312Z,2.40
2018-06-17T14:52:36.753Z,2.22
2018-06-17T14:53:43.112Z,1.90
2018-06-17T14:54:51.278Z,2.05
2018-06-17T14:55:58.116Z,3.40
2018-06-17T14:57:02.934Z,2.08
2018-06-17T14:58:09.918Z,2.60
2018-06-17T14:59:17.331Z,3.08
2018-06-17T15:00:22.529Z,3.15
2018-06-17T15:01:29.606Z,2.58
2018-06-17T15:02:37.628Z,2.75
2018-06-17T15:03:48.825Z,2.65
2018-06-17T15:04:53.981Z,2.70